Time;durP1;ratioP1;P1;durP2;ratioP2;P2;SDS_P1;SDS_P2;PMS_P1;PMS_P2;Temp;Humidity;BMP_temperature;BMP_pressure;BME280_temperature;BME280_humidity;BME280_pressure;Samples;Min_cycle;Max_cycle;Signal;HPM_P1;HPM_P2
2022/05/07 00:00:08;;;;;;;21.92;15.18;;;;;;;11.00;69.72;100312.91;5051986;28;20033;-68
2022/05/07 00:02:34;;;;;;;24.42;16.40;;;;;;;10.95;69.72;100313.97;5052605;28;20033;-67
2022/05/07 00:05:00;;;;;;;22.20;15.45;;;;;;;10.91;70.01;100307.09;5051830;28;20033;-67
2022/05/07 00:07:25;;;;;;;25.88;16.65;;;;;;;10.91;69.85;100307.09;5050275;28;20036;-68
2022/05/07 00:09:50;;;;;;;22.08;15.88;;;;;;;10.87;70.01;100302.88;5053476;28;20418;-68
2022/05/07 00:12:15;;;;;;;19.67;15.63;;;;;;;10.84;69.84;100296.88;5052580;28;20120;-69
2022/05/07 00:14:41;;;;;;;21.40;15.82;;;;;;;10.79;70.17;100294.44;5052595;28;20052;-69
2022/05/07 00:19:50;;;;;;;21.48;16.67;;;;;;;10.74;70.02;100289.34;5037800;28;20044;-68
2022/05/07 00:22:16;;;;;;;22.45;15.20;;;;;;;10.70;70.32;100293.03;5051597;28;20033;-69
2022/05/07 00:24:41;;;;;;;23.75;16.42;;;;;;;10.70;70.26;100286.91;5051653;28;20052;-67
2022/05/07 00:27:08;;;;;;;25.63;15.98;;;;;;;10.67;70.34;100287.88;5049859;28;20061;-69
2022/05/07 00:29:33;;;;;;;22.35;15.88;;;;;;;10.68;70.16;100286.97;5053503;28;20044;-69
2022/05/07 00:31:59;;;;;;;20.38;14.75;;;;;;;10.65;70.28;100280.97;5052772;28;20032;-68
2022/05/07 00:34:25;;;;;;;23.13;15.98;;;;;;;10.64;70.37;100280.09;5055189;28;20521;-68
2022/05/07 00:36:50;;;;;;;16.65;12.85;;;;;;;10.64;70.22;100281.91;5037743;28;20404;-67
2022/05/07 00:39:16;;;;;;;22.95;15.85;;;;;;;10.64;70.17;100273.97;5055971;28;20044;-67
2022/05/07 00:41:41;;;;;;;21.60;14.63;;;;;;;10.65;70.16;100270.41;5053604;28;20032;-68
2022/05/07 00:44:06;;;;;;;18.08;13.02;;;;;;;10.67;69.71;100281.75;5051926;28;20056;-68
2022/05/07 00:46:32;;;;;;;17.70;13.95;;;;;;;10.67;69.56;100273.84;5051030;28;20045;-68
2022/05/07 00:48:58;;;;;;;18.63;13.00;;;;;;;10.68;69.64;100283.47;5034525;28;20513;-69
2022/05/07 00:51:33;;;;;;;19.08;13.15;;;;;;;10.71;69.57;100283.34;5051525;28;20115;-69
2022/05/07 00:53:59;;;;;;;20.58;14.30;;;;;;;10.76;69.28;100280.53;5052487;28;20068;-69
2022/05/07 00:56:25;;;;;;;21.02;13.35;;;;;;;10.73;69.66;100292.03;5050764;28;20052;-68
2022/05/07 00:58:51;;;;;;;20.95;14.25;;;;;;;10.70;69.68;100285.09;5031249;28;20747;-68
2022/05/07 01:01:17;;;;;;;25.90;15.73;;;;;;;10.66;70.40;100280.06;5031707;28;20029;-68
2022/05/07 01:03:45;;;;;;;21.00;15.15;;;;;;;10.62;70.68;100279.31;5049959;28;20068;-69
2022/05/07 01:06:11;;;;;;;23.13;15.73;;;;;;;10.56;70.62;100270.78;5050083;28;20053;-65
2022/05/07 01:08:37;;;;;;;30.33;14.98;;;;;;;10.49;70.85;100272.84;5051223;28;20057;-67
2022/05/07 01:11:02;;;;;;;22.85;15.55;;;;;;;10.46;71.05;100278.22;5050677;28;20037;-67
2022/05/07 01:13:30;;;;;;;23.80;15.15;;;;;;;10.47;71.14;100277.31;5050504;28;20035;-67
2022/05/07 01:15:56;;;;;;;18.55;14.32;;;;;;;10.46;70.73;100280.84;5049723;28;20060;-67
2022/05/07 01:18:22;;;;;;;18.27;14.07;;;;;;;10.50;70.93;100269.28;5050101;28;20029;-70
2022/05/07 01:20:48;;;;;;;18.35;12.43;;;;;;;10.53;70.63;100264.75;5041303;28;20090;-66
2022/05/07 01:23:13;;;;;;;20.35;13.65;;;;;;;10.53;70.49;100267.38;5052349;28;20090;-67
2022/05/07 01:25:39;;;;;;;20.33;14.00;;;;;;;10.55;70.07;100263.81;5052974;28;20029;-67
2022/05/07 01:28:05;;;;;;;25.33;14.30;;;;;;;10.53;69.58;100263.88;5052043;28;20477;-68
2022/05/07 01:30:30;;;;;;;17.42;13.00;;;;;;;10.52;69.65;100265.66;5034781;28;20047;-68
2022/05/07 01:32:56;;;;;;;22.52;15.98;;;;;;;10.50;69.97;100259.56;5052495;28;20032;-68
2022/05/07 01:35:21;;;;;;;19.58;14.13;;;;;;;10.49;69.77;100251.75;5052448;28;20032;-68
2022/05/07 01:37:47;;;;;;;19.80;13.80;;;;;;;10.46;69.60;100255.38;5051776;28;20132;-67
2022/05/07 01:40:12;;;;;;;19.35;13.45;;;;;;;10.43;70.32;100252.84;5052592;28;20036;-67
2022/05/07 01:42:39;;;;;;;21.48;13.85;;;;;;;10.41;69.98;100252.06;5051835;28;20029;-67
2022/05/07 01:45:05;;;;;;;15.73;12.32;;;;;;;10.42;70.54;100259.03;5050799;28;20036;-67
2022/05/07 01:50:14;;;;;;;18.98;13.25;;;;;;;10.36;70.86;100247.88;5050459;28;20070;-67
2022/05/07 01:52:40;;;;;;;17.90;11.82;;;;;;;10.37;70.50;100246.97;5051220;28;20489;-69
2022/05/07 01:55:05;;;;;;;21.33;14.43;;;;;;;10.37;70.49;100247.84;5050432;28;20045;-68
2022/05/07 01:57:30;;;;;;;19.75;13.48;;;;;;;10.37;70.49;100249.63;5049623;28;20429;-69
2022/05/07 01:59:56;;;;;;;22.48;13.85;;;;;;;10.38;70.36;100251.31;5050173;28;20127;-68
2022/05/07 02:02:21;;;;;;;18.42;13.18;;;;;;;10.37;70.30;100245.19;5031899;28;20513;-69
2022/05/07 02:04:47;;;;;;;19.92;13.52;;;;;;;10.38;70.42;100252.16;5031842;28;20041;-68
2022/05/07 02:07:12;;;;;;;19.90;12.18;;;;;;;10.39;70.13;100253.06;5048704;28;20790;-67
2022/05/07 02:09:37;;;;;;;22.08;13.43;;;;;;;10.37;70.18;100261.00;5050431;28;20025;-69
2022/05/07 02:12:03;;;;;;;20.08;13.82;;;;;;;10.35;69.86;100248.81;5049587;28;20029;-68
2022/05/07 02:14:29;;;;;;;19.42;13.70;;;;;;;10.35;69.89;100257.56;5049444;28;20033;-69
2022/05/07 02:16:55;;;;;;;24.00;15.35;;;;;;;10.36;70.32;100254.03;5052422;28;20041;-68
2022/05/07 02:19:20;;;;;;;20.10;13.27;;;;;;;10.38;70.05;100256.59;5053374;28;20033;-67
2022/05/07 02:21:45;;;;;;;20.63;13.95;;;;;;;10.38;69.89;100256.59;5050880;28;20037;-69
2022/05/07 02:24:11;;;;;;;18.25;13.68;;;;;;;10.36;70.38;100264.59;5054426;28;20029;-65
2022/05/07 02:26:36;;;;;;;21.13;14.68;;;;;;;10.36;69.90;100261.94;5051106;28;20040;-67
2022/05/07 02:29:01;;;;;;;18.17;12.65;;;;;;;10.35;70.58;100260.22;5017256;28;20501;-68
2022/05/07 02:31:27;;;;;;;18.80;12.40;;;;;;;10.34;70.19;100260.25;5051805;28;20478;-68
2022/05/07 02:33:53;;;;;;;19.85;11.60;;;;;;;10.31;70.72;100256.84;5051373;28;20049;-67
2022/05/07 02:36:18;;;;;;;21.95;14.70;;;;;;;10.29;70.60;100258.69;5050619;28;20399;-66
2022/05/07 02:38:43;;;;;;;17.73;13.13;;;;;;;10.26;70.80;100256.16;5051124;28;20048;-68
2022/05/07 02:43:53;;;;;;;18.35;13.55;;;;;;;10.20;71.22;100252.91;5051011;28;20269;-67
2022/05/07 02:46:18;;;;;;;22.40;13.45;;;;;;;10.17;71.01;100253.88;5051331;28;20044;-66
2022/05/07 02:48:46;;;;;;;21.80;13.13;;;;;;;10.14;71.36;100253.13;5053533;28;20037;-68
2022/05/07 02:51:12;;;;;;;17.63;12.63;;;;;;;10.12;70.94;100253.22;5056000;28;20044;-69
2022/05/07 02:53:38;;;;;;;20.92;12.13;;;;;;;10.13;71.52;100246.16;5053349;28;20037;-67
2022/05/07 02:56:04;;;;;;;18.83;13.55;;;;;;;10.12;71.65;100247.09;5034326;28;20052;-66
2022/05/07 02:58:30;;;;;;;20.40;13.82;;;;;;;10.10;71.94;100247.13;5052916;28;20032;-67
2022/05/07 03:00:55;;;;;;;18.00;13.38;;;;;;;10.09;71.56;100243.66;5053013;28;20040;-68
2022/05/07 03:03:21;;;;;;;18.27;12.82;;;;;;;10.07;71.53;100248.13;5052881;28;20504;-68
2022/05/07 03:05:46;;;;;;;17.15;11.85;;;;;;;10.05;71.90;100247.31;5052840;28;20049;-68
2022/05/07 03:08:11;;;;;;;22.00;13.30;;;;;;;10.01;72.27;100242.22;5034639;28;20044;-68
2022/05/07 03:10:37;;;;;;;18.55;13.20;;;;;;;9.99;72.06;100242.31;5053377;28;20043;-68
2022/05/07 03:13:02;;;;;;;18.50;13.07;;;;;;;9.96;71.83;100239.78;5052944;28;20446;-69
2022/05/07 03:15:28;;;;;;;18.30;13.38;;;;;;;9.94;71.83;100238.97;5052937;28;20521;-69
2022/05/07 03:17:53;;;;;;;18.10;12.80;;;;;;;9.93;72.39;100239.91;5051580;28;20049;-68
2022/05/07 03:20:18;;;;;;;19.73;12.93;;;;;;;9.90;72.46;100240.03;5051946;28;20482;-67
2022/05/07 03:22:45;;;;;;;19.27;13.48;;;;;;;9.91;72.64;100236.47;5052448;28;20033;-68
2022/05/07 03:25:11;;;;;;;19.48;13.27;;;;;;;9.89;72.47;100230.41;5054064;28;20059;-67
2022/05/07 03:27:37;;;;;;;21.40;13.95;;;;;;;9.89;72.17;100235.66;5056442;28;20406;-67
2022/05/07 03:30:03;;;;;;;17.95;13.10;;;;;;;9.89;72.10;100235.66;5057850;28;20041;-67
2022/05/07 03:32:28;;;;;;;19.05;13.80;;;;;;;9.88;72.14;100231.31;5056403;28;20110;-68
2022/05/07 03:34:53;;;;;;;18.17;12.10;;;;;;;9.87;72.42;100235.75;5056123;28;20033;-67
2022/05/07 03:37:19;;;;;;;18.23;13.05;;;;;;;9.86;72.02;100238.41;5056973;28;20033;-68
2022/05/07 03:39:44;;;;;;;20.05;13.48;;;;;;;9.87;72.04;100234.88;5041328;28;20045;-67
2022/05/07 03:42:09;;;;;;;19.10;13.40;;;;;;;9.86;72.12;100235.78;5057442;28;20032;-67
2022/05/07 03:44:35;;;;;;;18.63;12.43;;;;;;;9.85;71.90;100231.44;5056003;28;20037;-66
2022/05/07 03:47:00;;;;;;;22.73;13.90;;;;;;;9.84;72.19;100235.00;5038569;28;20116;-67
2022/05/07 03:49:25;;;;;;;18.17;12.65;;;;;;;9.84;72.69;100232.34;5058501;28;20033;-67
2022/05/07 03:54:35;;;;;;;18.65;11.68;;;;;;;9.83;72.77;100230.66;5045827;28;20080;-67
2022/05/07 03:57:00;;;;;;;18.83;12.43;;;;;;;9.84;72.17;100230.56;5042412;28;20037;-68
2022/05/07 03:59:25;;;;;;;18.70;13.98;;;;;;;9.84;72.62;100230.56;5055569;28;20044;-67
2022/05/07 04:01:51;;;;;;;19.85;13.48;;;;;;;9.86;72.47;100227.88;5053370;28;20037;-68
2022/05/07 04:04:16;;;;;;;16.05;11.80;;;;;;;9.86;72.89;100226.09;5052784;28;20044;-68
2022/05/07 04:06:42;;;;;;;19.27;12.70;;;;;;;9.88;72.43;100226.06;5052235;28;20032;-68
2022/05/07 04:09:07;;;;;;;17.08;10.98;;;;;;;9.92;72.73;100226.78;5052921;28;20375;-68
2022/05/07 04:11:32;;;;;;;18.45;11.63;;;;;;;9.97;72.63;100228.34;5052394;28;20033;-68
2022/05/07 04:13:58;;;;;;;21.48;13.65;;;;;;;10.00;72.25;100240.53;5052312;28;20410;-67
2022/05/07 04:16:23;;;;;;;20.63;12.75;;;;;;;10.01;72.22;100237.81;5052329;28;20041;-68
2022/05/07 04:18:48;;;;;;;20.30;12.68;;;;;;;10.03;71.63;100238.63;5054264;28;20041;-68
2022/05/07 04:21:13;;;;;;;23.60;14.32;;;;;;;10.03;71.88;100237.75;5053388;28;20486;-68
2022/05/07 04:23:39;;;;;;;24.88;13.13;;;;;;;10.03;72.06;100235.97;5054075;28;20044;-68
2022/05/07 04:26:04;;;;;;;17.48;13.07;;;;;;;10.05;72.25;100241.19;5036292;28;20037;-66
2022/05/07 04:28:29;;;;;;;21.83;13.43;;;;;;;10.04;72.19;100242.09;5052869;28;20044;-68
2022/05/07 04:30:55;;;;;;;19.77;13.57;;;;;;;10.10;71.47;100248.00;5051589;28;20033;-68
2022/05/07 04:33:21;;;;;;;18.27;12.18;;;;;;;10.16;71.63;100238.97;5051280;28;20128;-68
2022/05/07 04:35:48;;;;;;;15.57;12.15;;;;;;;10.21;71.29;100238.78;5051216;28;20048;-68
2022/05/07 04:38:14;;;;;;;21.83;13.07;;;;;;;10.24;71.28;100236.06;5050763;28;20029;-68
2022/05/07 04:40:40;;;;;;;15.63;11.27;;;;;;;10.25;71.99;100235.13;5032330;28;20402;-66
2022/05/07 04:43:05;;;;;;;19.10;11.73;;;;;;;10.24;71.69;100231.63;5050784;28;20036;-67
2022/05/07 04:45:31;;;;;;;15.68;11.48;;;;;;;10.24;71.92;100234.28;5032647;28;20119;-67
2022/05/07 04:47:56;;;;;;;19.67;11.70;;;;;;;10.29;71.59;100234.13;5051048;28;20048;-66
2022/05/07 04:50:21;;;;;;;17.35;11.48;;;;;;;10.35;71.45;100236.50;5053429;28;20029;-67
2022/05/07 04:52:47;;;;;;;18.65;12.93;;;;;;;10.39;71.88;100239.88;5053697;28;20037;-67
2022/05/07 04:55:12;;;;;;;15.95;11.93;;;;;;;10.42;71.68;100245.00;5053600;28;20099;-65
2022/05/07 04:57:38;;;;;;;17.02;13.25;;;;;;;10.47;71.47;100241.25;5053466;28;20036;-67
2022/05/07 05:00:07;;;;;;;16.90;10.75;;;;;;;10.59;71.34;100247.81;5050512;28;20048;-66
2022/05/07 05:02:32;;;;;;;18.88;11.82;;;;;;;10.71;70.82;100257.00;5050127;28;20044;-66
2022/05/07 05:04:57;;;;;;;15.02;10.27;;;;;;;10.83;70.58;100259.09;5050271;28;20060;-67
2022/05/07 05:07:23;;;;;;;22.30;13.15;;;;;;;10.93;70.24;100270.13;5049517;28;20104;-67
2022/05/07 05:09:48;;;;;;;31.02;14.35;;;;;;;10.99;70.14;100263.72;5049957;28;20033;-68
2022/05/07 05:12:13;;;;;;;17.27;11.02;;;;;;;11.01;70.45;100267.16;5049991;28;20041;-68
2022/05/07 05:17:23;;;;;;;20.58;13.52;;;;;;;11.11;70.39;100268.47;5049108;28;20539;-66
2022/05/07 05:19:48;;;;;;;29.50;14.48;;;;;;;11.16;70.84;100266.47;5050295;28;20045;-66
2022/05/07 05:22:14;;;;;;;35.72;15.30;;;;;;;11.23;70.79;100275.00;5049623;28;20109;-69
2022/05/07 05:24:39;;;;;;;32.72;14.95;;;;;;;11.26;70.92;100275.69;5050126;28;20049;-67
2022/05/07 05:27:04;;;;;;;20.00;13.43;;;;;;;11.35;70.29;100277.94;5049376;28;20033;-67
2022/05/07 05:29:30;;;;;;;20.23;14.30;;;;;;;11.44;70.51;100275.78;5049911;28;20052;-69
2022/05/07 05:31:55;;;;;;;19.52;13.95;;;;;;;11.51;69.75;100279.88;5049803;28;20120;-67
2022/05/07 05:34:20;;;;;;;20.70;13.73;;;;;;;11.60;69.40;100276.81;5049739;28;20078;-67
2022/05/07 05:36:46;;;;;;;18.85;11.70;;;;;;;11.69;69.43;100276.41;5049032;28;20041;-67
2022/05/07 05:39:11;;;;;;;18.73;13.32;;;;;;;11.77;67.99;100279.56;5050207;28;20167;-67
2022/05/07 05:41:39;;;;;;;16.98;12.48;;;;;;;11.87;68.19;100274.72;5049937;28;20036;-68
2022/05/07 05:44:05;;;;;;;22.90;13.15;;;;;;;12.01;67.48;100276.69;5049737;28;20544;-67
2022/05/07 05:46:30;;;;;;;16.02;11.75;;;;;;;12.11;67.51;100277.13;5048545;28;20032;-66
2022/05/07 05:48:55;;;;;;;18.98;12.77;;;;;;;12.24;67.25;100278.28;5049285;28;20033;-67
2022/05/07 05:51:21;;;;;;;18.13;11.40;;;;;;;12.36;67.33;100274.19;5047522;28;20037;-68
2022/05/07 05:53:49;;;;;;;17.05;12.57;;;;;;;12.48;66.77;100278.88;5032333;28;20029;-67
2022/05/07 05:56:14;;;;;;;19.65;13.00;;;;;;;12.59;65.86;100271.25;5013470;28;20037;-67
2022/05/07 05:58:40;;;;;;;23.08;12.98;;;;;;;12.73;65.70;100275.00;5032148;28;20037;-68
2022/05/07 06:01:08;;;;;;;19.58;12.90;;;;;;;12.88;65.34;100276.88;5032379;28;20029;-67
2022/05/07 06:03:34;;;;;;;20.58;12.57;;;;;;;13.04;64.44;100275.16;5031326;28;20654;-67
2022/05/07 06:06:00;;;;;;;19.60;12.20;;;;;;;13.24;63.84;100281.19;5029559;28;20121;-66
2022/05/07 06:08:26;;;;;;;16.90;13.05;;;;;;;13.40;63.42;100275.97;5029089;28;20214;-66
2022/05/07 06:10:52;;;;;;;18.67;13.10;;;;;;;13.56;62.55;100274.25;5029144;28;20060;-69
2022/05/07 06:13:18;;;;;;;17.17;12.38;;;;;;;13.71;61.81;100275.19;5029409;28;20057;-66
2022/05/07 06:15:45;;;;;;;17.85;11.52;;;;;;;13.86;61.83;100276.16;5028930;28;20041;-67
2022/05/07 06:18:11;;;;;;;17.90;12.20;;;;;;;14.03;61.50;100275.19;5031938;28;20063;-66
2022/05/07 06:20:36;;;;;;;14.23;11.70;;;;;;;14.16;62.09;100276.25;5031410;28;20491;-68
2022/05/07 06:23:02;;;;;;;18.05;10.82;;;;;;;14.34;62.42;100283.13;5013059;28;20041;-69
2022/05/07 06:28:11;;;;;;;18.80;11.90;;;;;;;14.67;61.50;100284.84;5031206;28;20556;-68
2022/05/07 06:30:36;;;;;;;16.70;10.82;;;;;;;14.79;60.58;100278.81;5031158;28;20025;-68
2022/05/07 06:33:02;;;;;;;16.30;11.20;;;;;;;14.98;57.65;100286.53;5030534;28;20048;-68
2022/05/07 06:35:28;;;;;;;17.90;10.90;;;;;;;15.19;57.90;100284.41;5029839;28;20029;-68
2022/05/07 06:37:53;;;;;;;22.85;12.65;;;;;;;15.40;57.98;100286.69;5028665;28;20041;-67
2022/05/07 06:40:19;;;;;;;20.83;12.15;;;;;;;15.57;56.71;100283.00;5029034;28;20033;-68
2022/05/07 06:42:45;;;;;;;14.40;10.18;;;;;;;15.78;54.83;100286.16;5028401;28;20509;-66
2022/05/07 06:45:11;;;;;;;16.20;10.65;;;;;;;15.97;53.71;100280.53;5029913;28;20116;-67
2022/05/07 06:47:37;;;;;;;14.20;10.10;;;;;;;16.17;53.65;100282.78;5028779;28;20485;-67
2022/05/07 06:50:04;;;;;;;17.83;10.70;;;;;;;16.38;52.26;100282.31;5029641;28;20092;-68
2022/05/07 06:52:30;;;;;;;16.33;10.02;;;;;;;16.53;51.34;100282.16;5029512;28;20025;-67
2022/05/07 06:54:56;;;;;;;17.67;11.35;;;;;;;16.68;51.30;100282.94;5030429;28;20036;-66
2022/05/07 06:57:24;;;;;;;21.02;12.95;;;;;;;16.80;50.33;100281.31;5030106;28;20037;-66
2022/05/07 06:59:50;;;;;;;15.05;11.27;;;;;;;16.87;49.46;100285.28;5030942;28;20109;-66
2022/05/07 07:02:15;;;;;;;13.80;10.40;;;;;;;16.97;49.75;100290.81;5031550;28;20087;-66
2022/05/07 07:04:40;;;;;;;16.45;10.65;;;;;;;17.10;49.29;100291.69;5031510;28;20049;-66
2022/05/07 07:07:07;;;;;;;18.15;11.18;;;;;;;17.30;49.06;100284.13;5028839;28;20025;-68
2022/05/07 07:09:33;;;;;;;18.20;12.23;;;;;;;17.49;48.29;100287.22;5029017;28;20506;-68
2022/05/07 07:11:58;;;;;;;15.93;11.43;;;;;;;17.60;47.55;100290.00;5029055;28;20125;-68
2022/05/07 07:14:23;;;;;;;18.52;11.35;;;;;;;17.66;47.69;100283.38;5028953;28;20486;-69
2022/05/07 07:16:49;;;;;;;14.98;11.15;;;;;;;17.75;47.88;100290.72;5027930;28;20041;-68
2022/05/07 07:19:16;;;;;;;23.77;12.07;;;;;;;17.83;48.16;100289.38;5028651;28;20076;-68
2022/05/07 07:21:43;;;;;;;18.02;12.07;;;;;;;17.80;48.28;100293.97;5029484;28;20076;-69
2022/05/07 07:24:08;;;;;;;18.80;12.60;;;;;;;17.90;48.71;100294.16;5029286;28;20041;-68
2022/05/07 07:26:33;;;;;;;16.30;10.82;;;;;;;18.07;48.49;100294.75;5030672;28;20033;-69
2022/05/07 07:28:59;;;;;;;16.77;11.88;;;;;;;18.31;48.25;100300.09;5030405;28;20030;-69
2022/05/07 07:31:24;;;;;;;30.67;15.75;;;;;;;18.41;49.40;100296.66;5031383;28;20021;-69
2022/05/07 07:33:49;;;;;;;26.77;17.15;;;;;;;18.42;48.41;100301.03;5029231;28;20050;-67
2022/05/07 07:36:15;;;;;;;22.70;16.65;;;;;;;18.60;48.24;100303.31;5031426;28;20033;-66
2022/05/07 07:38:40;;;;;;;18.08;16.13;;;;;;;18.73;48.40;100296.09;5033629;28;20041;-68
2022/05/07 07:41:06;;;;;;;22.30;16.52;;;;;;;18.85;48.51;100291.66;5035750;28;20089;-67
2022/05/07 07:43:35;;;;;;;24.35;15.27;;;;;;;18.94;47.57;100298.13;5034237;28;20068;-67
2022/05/07 07:48:46;;;;;;;22.70;14.30;;;;;;;19.43;46.45;100302.38;5012935;28;20037;-69
2022/05/07 07:51:11;;;;;;;26.15;16.98;;;;;;;19.56;46.49;100296.91;5016493;28;20033;-66
2022/05/07 07:53:38;;;;;;;18.30;15.48;;;;;;;19.81;46.23;100296.69;5013929;28;20696;-68
2022/05/07 07:56:04;;;;;;;24.17;18.20;;;;;;;20.20;44.96;100301.66;5011742;28;20134;-67
2022/05/07 07:58:29;;;;;;;17.02;14.52;;;;;;;20.31;44.74;100305.16;5012176;28;20470;-67
2022/05/07 08:00:54;;;;;;;19.23;15.23;;;;;;;20.48;44.49;100303.78;5013048;28;20053;-67
2022/05/07 08:03:21;;;;;;;20.23;15.88;;;;;;;20.40;44.63;100300.00;5012842;28;20092;-68
2022/05/07 08:05:48;;;;;;;22.88;16.98;;;;;;;20.66;44.27;100292.53;5011838;28;20038;-69
2022/05/07 08:13:45;;;;;;;18.23;13.38;;;;;;;21.14;43.32;100298.28;5032112;28;20286;-68
2022/05/07 08:16:12;;;;;;;28.88;16.60;;;;;;;21.36;42.26;100299.97;5030696;28;20464;-68
2022/05/07 08:18:39;;;;;;;20.33;15.38;;;;;;;21.13;42.31;100293.88;5031049;28;20034;-69
2022/05/07 08:21:06;;;;;;;30.75;17.08;;;;;;;21.14;42.91;100295.59;5031100;28;20490;-68
2022/05/07 08:23:31;;;;;;;17.33;14.05;;;;;;;21.00;43.29;100290.56;5030721;28;20775;-68
2022/05/07 08:25:57;;;;;;;19.65;14.48;;;;;;;20.95;43.07;100296.31;5030569;28;20033;-68
2022/05/07 08:28:24;;;;;;;23.20;15.32;;;;;;;20.90;43.42;100295.00;5030814;28;20034;-69
2022/05/07 08:30:50;;;;;;;19.60;14.48;;;;;;;20.83;43.66;100301.84;5031155;28;20124;-69
2022/05/07 08:33:19;;;;;;;21.33;15.32;;;;;;;21.01;43.39;100298.44;5031607;28;20113;-66
2022/05/07 08:35:45;;;;;;;22.20;15.82;;;;;;;20.79;43.62;100299.41;5031648;28;20038;-66
2022/05/07 08:38:10;;;;;;;17.63;15.43;;;;;;;20.72;44.14;100294.69;5028804;28;20121;-68
2022/05/07 08:40:35;;;;;;;19.35;16.13;;;;;;;20.69;44.26;100295.81;5034774;28;20068;-68
2022/05/07 08:43:03;;;;;;;24.27;14.65;;;;;;;20.72;44.00;100297.38;5032769;28;20409;-67
2022/05/07 08:45:28;;;;;;;15.90;12.35;;;;;;;20.90;43.47;100293.16;5028592;28;20032;-66
2022/05/07 08:47:54;;;;;;;20.58;14.77;;;;;;;21.05;43.50;100291.00;5007213;28;20116;-67
2022/05/07 08:50:20;;;;;;;20.10;15.40;;;;;;;21.13;43.11;100285.00;5031341;28;20057;-67
2022/05/07 08:52:46;;;;;;;27.23;14.00;;;;;;;21.32;43.17;100298.53;5029047;28;20029;-68
2022/05/07 08:55:13;;;;;;;26.05;15.45;;;;;;;21.34;42.96;100293.00;5031594;28;20049;-67
2022/05/07 08:57:40;;;;;;;22.45;13.60;;;;;;;21.36;42.76;100291.94;5027705;28;20490;-66
2022/05/07 09:00:07;;;;;;;20.17;14.60;;;;;;;21.34;42.80;100284.97;5031671;28;20501;-67
2022/05/07 09:02:41;;;;;;;27.67;16.33;;;;;;;21.40;42.94;100287.16;5012950;28;20112;-68
2022/05/07 09:05:08;;;;;;;18.73;13.82;;;;;;;21.53;42.46;100290.47;5030075;28;20057;-68
2022/05/07 09:07:33;;;;;;;23.33;13.98;;;;;;;21.69;42.39;100281.94;5029660;28;20041;-68
2022/05/07 09:09:59;;;;;;;21.95;14.05;;;;;;;21.86;41.58;100283.16;5030057;28;20041;-67
2022/05/07 09:12:28;;;;;;;19.73;14.90;;;;;;;22.11;40.90;100280.94;5029206;28;20030;-68
2022/05/07 09:15:00;;;;;;;14.48;11.80;;;;;;;22.33;40.26;100280.75;5030321;28;20045;-67
2022/05/07 09:17:25;;;;;;;20.80;13.43;;;;;;;22.67;39.85;100280.34;5029350;28;20095;-69
2022/05/07 09:19:51;;;;;;;19.38;13.15;;;;;;;22.75;39.94;100282.31;5030307;28;20041;-68
2022/05/07 09:22:17;;;;;;;27.00;12.93;;;;;;;23.07;39.38;100276.66;5030602;28;20034;-68
2022/05/07 09:24:53;;;;;;;19.33;13.32;;;;;;;23.72;37.81;100276.75;5030307;28;20112;-69
2022/05/07 09:27:19;;;;;;;18.95;12.65;;;;;;;24.38;36.86;100273.00;5012226;28;20033;-68
2022/05/07 09:29:44;;;;;;;16.52;12.73;;;;;;;24.96;35.47;100261.75;5010352;28;20033;-70
2022/05/07 09:32:13;;;;;;;16.73;13.80;;;;;;;25.12;35.12;100268.28;5010945;28;20033;-68
2022/05/07 09:37:36;;;;;;;26.63;12.10;;;;;;;25.00;35.03;100271.22;5009433;28;20313;-67
2022/05/07 09:40:21;;;;;;;19.40;12.98;;;;;;;25.59;34.50;100265.22;5028636;28;20394;-68
2022/05/07 09:42:47;;;;;;;17.75;12.25;;;;;;;25.80;33.76;100273.75;5029301;28;20076;-67
2022/05/07 09:45:13;;;;;;;16.20;12.32;;;;;;;26.02;33.60;100274.22;5029845;28;20403;-68
2022/05/07 09:47:40;;;;;;;16.50;13.30;;;;;;;25.72;34.01;100265.63;5010796;28;20032;-68
2022/05/07 09:50:21;;;;;;;28.88;14.02;;;;;;;26.29;33.18;100262.31;5029342;28;20095;-69
2022/05/07 09:58:17;;;;;;;22.15;13.25;;;;;;;27.11;31.90;100259.66;5029209;28;20032;-69
2022/05/07 10:00:57;;;;;;;18.88;12.90;;;;;;;26.86;32.15;100269.66;5030347;28;20522;-69
2022/05/07 10:03:31;;;;;;;16.77;11.85;;;;;;;26.40;32.46;100266.53;5049646;28;20033;-68
2022/05/07 10:06:23;;;;;;;18.73;13.52;;;;;;;26.08;32.87;100268.16;5049081;28;20060;-68
2022/05/07 10:09:12;;;;;;;20.00;13.90;;;;;;;25.42;33.44;100256.19;5049504;28;20033;-68
2022/05/07 10:11:38;;;;;;;19.15;13.23;;;;;;;25.57;33.61;100259.13;5049280;28;20521;-68
2022/05/07 10:14:03;;;;;;;19.45;12.43;;;;;;;26.44;32.13;100257.94;5048902;28;20130;-68
2022/05/07 10:16:30;;;;;;;17.80;13.73;;;;;;;27.18;30.63;100253.41;5048386;28;20486;-67
2022/05/07 10:18:55;;;;;;;18.02;11.60;;;;;;;27.82;29.63;100248.00;5049246;28;20033;-69
2022/05/07 10:21:21;;;;;;;18.80;13.23;;;;;;;28.44;28.35;100238.97;5051661;28;20032;-69
2022/05/07 10:23:55;;;;;;;21.20;14.23;;;;;;;28.80;26.79;100240.28;5049352;28;20048;-69
2022/05/07 10:26:22;;;;;;;15.97;12.33;;;;;;;28.43;27.13;100236.47;5048881;28;20039;-69
2022/05/07 10:28:48;;;;;;;22.15;12.55;;;;;;;27.66;28.05;100244.47;5048793;28;20275;-68
2022/05/07 10:31:22;;;;;;;14.45;11.57;;;;;;;27.30;28.96;100247.66;5049271;28;20029;-69
2022/05/07 10:33:49;;;;;;;22.08;13.52;;;;;;;26.62;28.93;100244.28;5048808;28;20039;-68
2022/05/07 10:36:15;;;;;;;16.90;11.93;;;;;;;26.44;28.98;100243.56;5047929;28;20060;-68
2022/05/07 10:38:44;;;;;;;19.27;12.18;;;;;;;26.86;28.56;100246.16;5049072;28;20082;-68
2022/05/07 10:41:12;;;;;;;16.45;13.48;;;;;;;27.60;27.70;100235.19;5048119;28;20401;-68
2022/05/07 10:44:07;;;;;;;12.85;11.52;;;;;;;27.73;27.72;100240.88;5048996;28;20033;-69
2022/05/07 10:46:43;;;;;;;16.77;12.75;;;;;;;27.52;28.26;100233.38;5016497;28;20113;-68
2022/05/07 10:49:09;;;;;;;12.95;11.43;;;;;;;26.85;29.71;100238.19;5029053;28;20030;-68
2022/05/07 10:51:37;;;;;;;13.05;10.80;;;;;;;26.25;30.85;100239.31;5032820;28;20044;-69
2022/05/07 10:54:18;;;;;;;19.17;14.05;;;;;;;25.89;31.04;100235.00;5035476;28;20093;-69
2022/05/07 10:56:47;;;;;;;17.88;13.60;;;;;;;25.51;31.38;100235.47;5031043;28;20053;-68
2022/05/07 10:59:13;;;;;;;20.23;13.60;;;;;;;25.08;33.64;100235.38;5032724;28;20542;-68
2022/05/07 11:01:39;;;;;;;24.85;15.18;;;;;;;24.56;34.87;100232.59;5031698;28;20056;-68
2022/05/07 11:04:08;;;;;;;21.77;14.73;;;;;;;24.51;35.37;100238.44;5031353;28;20490;-69
2022/05/07 11:06:39;;;;;;;19.98;14.68;;;;;;;24.42;36.10;100232.13;5030633;28;20025;-69
2022/05/07 11:09:05;;;;;;;20.55;13.73;;;;;;;24.44;35.26;100237.38;5031521;28;20037;-69
2022/05/07 11:11:30;;;;;;;21.58;15.10;;;;;;;24.39;35.28;100228.88;5038747;28;20030;-68
2022/05/07 11:13:56;;;;;;;28.77;14.32;;;;;;;24.35;35.38;100232.88;5036466;28;20088;-68
2022/05/07 11:16:23;;;;;;;19.10;13.15;;;;;;;24.40;34.69;100230.56;5038484;28;20037;-68
2022/05/07 11:18:53;;;;;;;23.73;17.48;;;;;;;24.32;34.92;100230.50;5035426;28;20038;-68
2022/05/07 11:21:20;;;;;;;25.25;16.50;;;;;;;24.04;35.53;100235.91;5034984;28;20053;-67
2022/05/07 11:23:56;;;;;;;22.02;15.13;;;;;;;23.97;35.08;100230.31;5037332;28;20593;-68
2022/05/07 11:26:23;;;;;;;25.42;14.88;;;;;;;23.86;34.98;100230.50;5034978;28;20068;-68
2022/05/07 11:28:49;;;;;;;19.65;14.10;;;;;;;23.66;34.29;100232.44;5035183;28;20036;-67
2022/05/07 11:31:28;;;;;;;21.75;13.25;;;;;;;23.69;34.14;100224.03;5037246;28;20029;-67
2022/05/07 11:34:11;;;;;;;29.55;15.88;;;;;;;23.54;33.74;100226.38;5036671;28;20099;-68
2022/05/07 11:36:38;;;;;;;21.60;12.65;;;;;;;23.63;34.26;100221.97;5032912;28;20640;-68
2022/05/07 11:39:08;;;;;;;23.55;14.13;;;;;;;23.71;34.16;100230.13;5034576;28;20056;-68